Airfield :
LOGIN :

Register | Disclaimer

   EN    FR    IT 

 










Legend :    VFR   Marginal VFR   IFR   Intensive IFR   Very Intensive IFR
Visi :
Ceiling :
>= 8 km
>= 3000ft
5 to 8 km
1000 to 3000 ft
1500m to 5 km
500 to 1000 ft
800 to 1500m
200 to 500 ft
< 800m
< 200 ft
Symbols :   Thunderstorms  Fog  Heavy snow  Heavy precipitations  Wind > 20 kt
SIGMETs :     Misc.  Thunderstorms  Icing  Turbulence  Mountain Waves  Volcanic Ashes






- Airport Elevation : 1079 ft


ETIK - Illesheim Air Base

CURRENT METAR :
  • 130356Z AUTO 00000KT 9999 CLR 06/06 A3027 RMK AO2 SLP250 T00610061

EXPIRED METARs :
  • 130256Z AUTO 00000KT 9999 CLR 06/06 A3027 RMK AO2 SLP249 T00580058 57004 $
  • 130156Z AUTO 00000KT 9999 CLR 06/06 A3028 RMK AO2 SLP252 T00640064 $

TAF TAF ETIK
Valid from the 12 at 22:00 until the 14 at 04:00 UTC


122200Z 1222/1404 09009KT 9999 SCT300 QNH3028INS
BECMG 1310/1311 11009KT 9999 BKN080 QNH3009INS TX26/1311Z TN10/13003Z



MET'MAP, your aeronautical weather chart ! - Copyright ORBIFLY December 2007 - Disclaimer

ORBIFLY MET'MAP TEAM :

Programming & Development : Alexandra Zaïnal
Concept & original design : Baudouin d'Aumeries
Assistance for programming : Marc-Olivier Méhu
Technical & hardware support : Manuel Goepfert

Contact : metmap@orbifly.com




SOURCES & CREDITS :

   NOAA